Time;durP1;ratioP1;P1;durP2;ratioP2;P2;SDS_P1;SDS_P2;PMS_P1;PMS_P2;Temp;Humidity;BMP_temperature;BMP_pressure;BME280_temperature;BME280_humidity;BME280_pressure;Samples;Min_cycle;Max_cycle;Signal;HPM_P1;HPM_P2
2021/07/07 04:00:37;;;;;;;3.37;0.90;;;14.00;96.30;;;;;;5899739;23;20488;-79
2021/07/07 04:03:03;;;;;;;3.33;0.90;;;14.00;96.30;;;;;;4995488;28;20413;-80
2021/07/07 04:05:28;;;;;;;1.17;1.00;;;14.00;96.30;;;;;;4994794;28;20205;-79
2021/07/07 04:07:55;;;;;;;0.90;0.60;;;14.00;96.30;;;;;;4994886;28;20420;-79
2021/07/07 04:10:20;;;;;;;1.30;1.13;;;14.00;96.30;;;;;;4995094;28;20188;-79
2021/07/07 04:12:47;;;;;;;5.50;1.00;;;14.00;96.30;;;;;;4977880;28;20432;-79
2021/07/07 04:15:19;;;;;;;6.07;1.20;;;14.00;96.30;;;;;;4977823;28;20181;-80
2021/07/07 04:17:46;;;;;;;5.10;0.90;;;14.00;96.30;;;;;;5004387;28;20906;-79
2021/07/07 04:20:13;;;;;;;16.63;1.03;;;14.00;96.30;;;;;;4995088;28;20576;-79
2021/07/07 04:22:39;;;;;;;2.03;1.60;;;14.00;96.30;;;;;;4982138;28;20416;-78
2021/07/07 04:25:08;;;;;;;5.10;1.70;;;13.90;96.30;;;;;;4997405;28;20916;-78
2021/07/07 04:27:36;;;;;;;1.50;1.20;;;13.90;96.30;;;;;;4994237;28;20415;-78
2021/07/07 04:30:04;;;;;;;2.50;1.40;;;14.00;96.30;;;;;;4997094;28;20424;-79
2021/07/07 04:32:30;;;;;;;1.10;1.00;;;14.00;96.30;;;;;;4997412;28;20437;-78
2021/07/07 04:34:55;;;;;;;2.10;1.10;;;14.00;96.30;;;;;;4989864;28;20424;-78
2021/07/07 04:37:20;;;;;;;6.10;1.07;;;14.00;96.30;;;;;;4978917;28;20198;-78
2021/07/07 04:39:46;;;;;;;1.20;0.90;;;13.90;96.30;;;;;;4976861;28;20539;-78
2021/07/07 04:42:11;;;;;;;1.37;1.00;;;13.90;96.30;;;;;;4976751;28;20210;-78
2021/07/07 04:44:37;;;;;;;1.33;1.13;;;13.90;96.30;;;;;;4959547;28;20182;-78
2021/07/07 04:47:03;;;;;;;2.43;1.30;;;13.90;96.30;;;;;;4977758;28;20194;-78
2021/07/07 04:49:28;;;;;;;1.77;1.17;;;13.90;96.30;;;;;;4977707;28;20197;-78
2021/07/07 04:51:54;;;;;;;3.33;1.10;;;13.90;96.30;;;;;;4976744;28;20220;-78
2021/07/07 04:54:19;;;;;;;1.00;0.80;;;13.90;96.30;;;;;;4978473;28;20170;-78
2021/07/07 04:56:45;;;;;;;1.93;1.07;;;13.90;96.30;;;;;;4978700;28;20193;-78
2021/07/07 04:59:11;;;;;;;1.20;0.70;;;13.90;96.30;;;;;;4975935;28;20179;-79
2021/07/07 05:01:38;;;;;;;1.77;0.80;;;13.90;96.30;;;;;;4974569;28;20213;-79
2021/07/07 05:04:04;;;;;;;1.00;0.90;;;13.90;96.30;;;;;;4974830;28;20182;-79
2021/07/07 05:06:30;;;;;;;1.03;0.80;;;13.90;96.30;;;;;;4957192;28;20461;-79
2021/07/07 05:08:55;;;;;;;1.60;0.90;;;14.00;96.30;;;;;;4974314;28;20921;-79
2021/07/07 05:11:21;;;;;;;1.20;0.70;;;14.00;96.30;;;;;;4975134;28;20226;-81
2021/07/07 05:13:47;;;;;;;1.97;0.73;;;14.10;96.30;;;;;;4977605;28;20185;-80
2021/07/07 05:16:12;;;;;;;5.70;3.77;;;14.10;96.30;;;;;;4970351;28;20185;-81
2021/07/07 05:18:38;;;;;;;11.17;7.10;;;14.20;96.30;;;;;;4976120;28;20177;-81
2021/07/07 05:21:04;;;;;;;2.63;1.87;;;14.20;96.30;;;;;;4977119;28;20233;-80
2021/07/07 05:23:33;;;;;;;1.20;1.10;;;14.20;96.30;;;;;;4989274;28;20189;-81
2021/07/07 05:26:00;;;;;;;1.10;0.90;;;14.10;96.30;;;;;;4974407;28;20277;-80
2021/07/07 05:28:26;;;;;;;1.00;0.90;;;14.00;96.30;;;;;;4974515;28;20852;-80
2021/07/07 05:30:51;;;;;;;1.30;1.13;;;14.10;96.30;;;;;;4958043;28;20554;-79
2021/07/07 05:33:17;;;;;;;1.13;0.80;;;14.10;96.30;;;;;;4975716;28;20531;-79
2021/07/07 05:35:42;;;;;;;1.57;1.00;;;14.20;96.30;;;;;;4975661;28;20188;-80
2021/07/07 05:38:09;;;;;;;1.00;0.90;;;14.30;96.30;;;;;;4974868;28;20185;-79
2021/07/07 05:40:34;;;;;;;1.33;0.80;;;14.30;96.30;;;;;;4973422;28;20253;-80
2021/07/07 05:43:00;;;;;;;1.13;0.90;;;14.40;96.30;;;;;;4955592;28;20422;-80
2021/07/07 05:45:27;;;;;;;1.30;0.90;;;14.40;96.30;;;;;;4977781;28;20186;-80
2021/07/07 05:47:53;;;;;;;2.60;1.00;;;14.40;96.30;;;;;;4992852;28;20166;-80
2021/07/07 05:50:19;;;;;;;1.73;0.90;;;14.40;96.30;;;;;;4993413;28;20424;-80
2021/07/07 05:52:45;;;;;;;1.20;0.80;;;14.20;96.30;;;;;;4993388;28;20413;-80
2021/07/07 05:55:11;;;;;;;0.90;0.70;;;14.10;96.30;;;;;;4976051;28;20417;-81
2021/07/07 05:57:37;;;;;;;0.90;0.80;;;14.10;96.30;;;;;;4975326;28;20173;-81
2021/07/07 06:00:29;;;;;;;2.17;0.70;;;14.20;96.30;;;;;;4976520;28;20420;-81
2021/07/07 06:02:56;;;;;;;1.20;0.70;;;14.30;96.30;;;;;;4989940;28;20436;-80
2021/07/07 06:05:22;;;;;;;1.60;0.77;;;14.30;96.30;;;;;;4993484;28;20892;-80
2021/07/07 06:07:49;;;;;;;1.50;0.90;;;14.30;96.30;;;;;;4996127;28;20417;-80
2021/07/07 06:10:17;;;;;;;0.90;0.73;;;14.40;96.30;;;;;;4998910;28;20487;-79
2021/07/07 06:12:43;;;;;;;1.43;0.80;;;14.40;96.30;;;;;;4999236;28;20401;-79
2021/07/07 06:15:11;;;;;;;5.60;0.90;;;14.40;96.30;;;;;;4983523;28;20413;-79
2021/07/07 06:17:37;;;;;;;1.77;0.90;;;14.40;96.30;;;;;;4979459;28;20526;-79
2021/07/07 06:20:05;;;;;;;1.30;1.17;;;14.40;96.30;;;;;;4981733;28;20453;-79
2021/07/07 06:22:30;;;;;;;1.37;0.90;;;14.40;96.30;;;;;;4983990;28;20433;-80
2021/07/07 06:24:56;;;;;;;1.17;0.97;;;14.50;96.30;;;;;;4993125;28;20413;-80
2021/07/07 06:27:21;;;;;;;1.53;1.20;;;14.50;96.30;;;;;;4997443;28;20206;-80
2021/07/07 06:29:48;;;;;;;2.10;1.90;;;14.50;96.30;;;;;;4986314;28;20678;-81
2021/07/07 06:32:14;;;;;;;2.03;1.83;;;14.60;96.30;;;;;;4973498;28;20198;-81
2021/07/07 06:34:40;;;;;;;2.00;1.90;;;14.60;96.30;;;;;;4955905;28;20425;-81
2021/07/07 06:37:06;;;;;;;2.70;2.13;;;14.70;96.30;;;;;;4972829;28;20428;-81
2021/07/07 06:39:31;;;;;;;2.30;2.10;;;14.60;96.30;;;;;;4973777;28;20417;-81
2021/07/07 06:41:57;;;;;;;1.50;1.40;;;14.60;96.30;;;;;;4973425;28;20293;-81
2021/07/07 06:44:22;;;;;;;1.40;1.30;;;14.60;96.30;;;;;;4973530;28;20186;-81
2021/07/07 06:46:48;;;;;;;2.30;1.17;;;14.60;96.30;;;;;;4973763;28;20259;-81
2021/07/07 06:49:13;;;;;;;1.63;1.13;;;14.60;96.30;;;;;;4973691;28;20648;-81
2021/07/07 06:51:39;;;;;;;1.10;0.77;;;14.70;96.30;;;;;;4974056;28;20201;-81
2021/07/07 06:54:04;;;;;;;1.40;0.90;;;14.70;96.30;;;;;;4956849;28;20186;-81
2021/07/07 06:56:30;;;;;;;1.40;1.10;;;14.80;96.30;;;;;;4957172;28;20182;-81
2021/07/07 06:58:55;;;;;;;1.10;0.83;;;14.70;96.30;;;;;;4973053;28;20170;-81
2021/07/07 07:01:21;;;;;;;1.10;1.00;;;14.70;96.30;;;;;;4956235;28;20221;-82
2021/07/07 07:03:46;;;;;;;1.27;0.90;;;14.70;96.30;;;;;;4973934;28;20518;-81
2021/07/07 07:06:12;;;;;;;1.00;0.90;;;14.80;96.30;;;;;;4972956;28;20209;-81
2021/07/07 07:08:38;;;;;;;1.50;1.20;;;14.90;96.30;;;;;;4972444;28;20163;-81
2021/07/07 07:11:04;;;;;;;1.30;1.07;;;15.00;96.30;;;;;;4972920;28;20507;-81
2021/07/07 07:13:30;;;;;;;1.60;1.00;;;15.00;96.30;;;;;;4973406;28;20538;-82
2021/07/07 07:15:55;;;;;;;1.10;0.93;;;15.00;96.30;;;;;;4955741;28;20569;-81
2021/07/07 07:18:21;;;;;;;1.30;0.90;;;15.10;96.30;;;;;;4972969;28;20182;-82
2021/07/07 07:20:46;;;;;;;1.10;0.80;;;15.10;96.30;;;;;;4956654;28;20578;-81
2021/07/07 07:23:13;;;;;;;1.23;0.80;;;15.20;96.30;;;;;;4973930;28;20229;-81
2021/07/07 07:25:38;;;;;;;1.50;0.90;;;15.20;96.30;;;;;;4956396;28;20202;-81
2021/07/07 07:28:04;;;;;;;1.10;0.70;;;15.20;96.30;;;;;;4972660;28;20416;-81
2021/07/07 07:30:31;;;;;;;1.00;0.90;;;15.20;96.30;;;;;;4972926;28;20190;-81
2021/07/07 07:32:56;;;;;;;1.77;0.90;;;15.20;96.30;;;;;;4956041;28;20174;-81
2021/07/07 07:35:23;;;;;;;4.60;1.53;;;15.30;96.30;;;;;;4972815;28;20472;-81
2021/07/07 07:37:51;;;;;;;0.97;0.70;;;15.30;96.30;;;;;;4972263;28;20221;-81
2021/07/07 07:40:23;;;;;;;0.90;0.70;;;15.40;96.30;;;;;;4980398;28;20417;-81
2021/07/07 07:42:49;;;;;;;0.80;0.60;;;15.30;96.30;;;;;;4976617;28;20409;-81
2021/07/07 07:45:15;;;;;;;0.90;0.70;;;15.30;96.30;;;;;;4958949;28;20457;-81
2021/07/07 07:47:42;;;;;;;1.10;0.70;;;15.30;96.30;;;;;;4975831;28;20489;-81
2021/07/07 07:50:11;;;;;;;1.53;0.90;;;15.20;96.30;;;;;;4976311;28;20652;-81
2021/07/07 07:52:46;;;;;;;1.10;0.93;;;15.10;96.30;;;;;;4976447;28;20449;-81
2021/07/07 07:55:12;;;;;;;1.10;0.70;;;15.20;96.30;;;;;;4958761;28;20420;-81
2021/07/07 07:57:39;;;;;;;2.23;0.90;;;15.20;96.30;;;;;;4975494;28;20405;-81
2021/07/07 08:00:25;;;;;;;0.83;0.70;;;15.20;96.30;;;;;;4957913;28;20240;-81
2021/07/07 08:02:52;;;;;;;2.00;0.97;;;15.20;96.30;;;;;;4976123;28;20482;-81
2021/07/07 08:05:18;;;;;;;1.00;0.73;;;15.30;96.30;;;;;;4976162;28;20433;-81
2021/07/07 08:07:44;;;;;;;1.13;0.90;;;15.30;96.30;;;;;;4975821;28;20775;-81
2021/07/07 08:10:18;;;;;;;1.50;0.97;;;15.40;96.30;;;;;;4975550;28;20425;-81
2021/07/07 08:12:44;;;;;;;1.03;0.70;;;15.40;96.30;;;;;;4976919;28;20421;-81
2021/07/07 08:15:10;;;;;;;0.90;0.80;;;15.40;96.30;;;;;;4976485;28;20836;-81
2021/07/07 08:17:36;;;;;;;1.93;0.77;;;15.40;96.30;;;;;;4975907;28;20186;-81
2021/07/07 08:20:02;;;;;;;1.00;0.60;;;15.50;96.30;;;;;;4976283;28;20193;-81
2021/07/07 08:22:28;;;;;;;1.00;0.70;;;15.50;96.30;;;;;;4958271;28;20204;-81
2021/07/07 08:24:53;;;;;;;1.00;0.63;;;15.50;96.30;;;;;;4958613;28;20851;-81
2021/07/07 08:27:19;;;;;;;1.77;0.83;;;15.50;96.30;;;;;;4976352;28;20617;-81
2021/07/07 08:29:45;;;;;;;2.30;1.00;;;15.60;96.30;;;;;;4975501;28;20178;-81
2021/07/07 08:32:11;;;;;;;0.97;0.70;;;15.70;96.30;;;;;;4975459;28;20433;-81
2021/07/07 08:34:37;;;;;;;0.90;0.80;;;15.90;96.30;;;;;;4958255;28;20170;-81
2021/07/07 08:37:02;;;;;;;0.90;0.60;;;15.90;96.30;;;;;;4974813;28;20233;-81
2021/07/07 08:39:29;;;;;;;1.17;0.80;;;16.00;96.30;;;;;;4975130;28;20428;-81
2021/07/07 08:41:55;;;;;;;0.90;0.70;;;16.10;96.30;;;;;;4975193;28;20689;-81
2021/07/07 08:44:21;;;;;;;1.23;0.73;;;16.10;96.30;;;;;;4957743;28;20432;-81
2021/07/07 08:46:46;;;;;;;1.40;0.90;;;16.20;96.30;;;;;;4974588;28;20457;-81
2021/07/07 08:49:12;;;;;;;1.30;0.80;;;16.40;96.30;;;;;;4957207;28;20180;-81
2021/07/07 08:51:41;;;;;;;0.90;0.70;;;16.60;96.30;;;;;;4957567;28;20269;-81
2021/07/07 08:54:11;;;;;;;1.03;0.73;;;16.80;96.30;;;;;;4976424;28;20274;-81
2021/07/07 08:56:40;;;;;;;4.63;0.90;;;16.80;96.30;;;;;;4976393;28;20414;-81
2021/07/07 08:59:07;;;;;;;0.80;0.63;;;17.00;96.30;;;;;;4976092;28;20414;-81
2021/07/07 09:02:03;;;;;;;1.53;0.60;;;17.10;96.30;;;;;;4958270;28;20625;-81
2021/07/07 09:04:31;;;;;;;0.90;0.60;;;17.30;96.30;;;;;;4975958;28;20424;-81
2021/07/07 09:07:08;;;;;;;2.10;0.63;;;17.50;96.30;;;;;;4974868;28;20465;-81
2021/07/07 09:09:48;;;;;;;3.00;0.90;;;17.40;96.30;;;;;;4975561;28;20408;-81
2021/07/07 09:12:28;;;;;;;19.17;5.30;;;17.60;96.30;;;;;;4956932;28;20521;-81
2021/07/07 09:15:15;;;;;;;1.00;0.70;;;17.60;96.30;;;;;;4957626;28;20421;-81
2021/07/07 09:17:49;;;;;;;1.30;0.73;;;17.60;96.30;;;;;;4975143;28;20914;-81
2021/07/07 09:20:28;;;;;;;0.90;0.67;;;17.50;96.30;;;;;;4975755;28;20935;-81
2021/07/07 09:23:24;;;;;;;1.83;0.90;;;17.40;96.30;;;;;;4975733;28;20402;-81
2021/07/07 09:26:03;;;;;;;1.37;0.77;;;17.30;96.30;;;;;;4958397;28;20461;-81
2021/07/07 09:28:37;;;;;;;1.23;0.83;;;17.20;96.30;;;;;;4975165;28;20408;-81
2021/07/07 09:31:07;;;;;;;1.63;1.37;;;17.20;96.30;;;;;;4975781;28;20430;-80
2021/07/07 09:33:39;;;;;;;1.97;1.30;;;17.20;96.30;;;;;;4958747;28;20442;-80
2021/07/07 09:36:23;;;;;;;1.00;0.90;;;17.30;96.30;;;;;;4964085;28;20424;-80
2021/07/07 09:38:50;;;;;;;1.60;0.77;;;17.30;96.30;;;;;;4967229;28;20445;-80
2021/07/07 09:41:17;;;;;;;1.00;0.80;;;17.50;96.30;;;;;;4987428;28;20456;-80
2021/07/07 09:43:51;;;;;;;0.90;0.70;;;17.50;96.30;;;;;;4983751;28;20521;-80
2021/07/07 09:46:18;;;;;;;5.87;1.00;;;17.60;96.30;;;;;;4984581;28;20465;-80
2021/07/07 09:48:45;;;;;;;1.30;0.70;;;17.60;96.30;;;;;;4986857;28;20457;-80
2021/07/07 09:51:11;;;;;;;1.10;0.70;;;17.60;96.30;;;;;;4973948;28;20453;-80
2021/07/07 09:53:36;;;;;;;2.87;1.00;;;17.70;96.30;;;;;;4996227;28;20428;-80
2021/07/07 09:56:03;;;;;;;0.90;0.70;;;17.80;96.30;;;;;;4987919;28;20529;-80
2021/07/07 09:58:29;;;;;;;0.77;0.50;;;17.80;96.30;;;;;;4962042;28;20182;-80
2021/07/07 10:00:54;;;;;;;0.80;0.60;;;17.50;96.30;;;;;;4959145;28;20457;-80
2021/07/07 10:03:20;;;;;;;1.10;0.63;;;17.60;96.30;;;;;;4977219;28;20440;-80
2021/07/07 10:05:47;;;;;;;0.80;0.50;;;17.80;96.30;;;;;;4969070;28;20271;-79
2021/07/07 10:08:13;;;;;;;0.90;0.60;;;17.90;96.30;;;;;;4991865;28;20189;-77
2021/07/07 10:10:41;;;;;;;1.73;0.60;;;17.90;96.30;;;;;;4989595;28;20440;-77
2021/07/07 10:13:10;;;;;;;1.10;0.80;;;17.80;96.30;;;;;;4993311;28;20563;-76
2021/07/07 10:15:36;;;;;;;1.63;0.67;;;17.90;96.30;;;;;;4992741;28;20432;-75
2021/07/07 10:18:04;;;;;;;1.00;0.80;;;18.10;96.30;;;;;;4994877;28;20424;-76
2021/07/07 10:20:30;;;;;;;0.93;0.70;;;18.30;96.30;;;;;;4991359;28;20441;-76
2021/07/07 10:22:57;;;;;;;3.23;0.70;;;18.60;96.30;;;;;;4988253;28;20808;-76
2021/07/07 10:25:26;;;;;;;0.90;0.60;;;18.70;96.30;;;;;;4989557;28;20427;-77
2021/07/07 10:27:54;;;;;;;0.90;0.60;;;18.70;96.30;;;;;;4985640;28;20509;-76
2021/07/07 10:30:21;;;;;;;1.83;0.70;;;18.70;96.30;;;;;;4974399;28;20422;-76
2021/07/07 10:33:07;;;;;;;2.60;0.70;;;18.70;96.30;;;;;;4974015;28;20406;-76
2021/07/07 10:35:33;;;;;;;1.43;0.60;;;18.80;96.30;;;;;;4985994;28;20423;-76
2021/07/07 10:37:58;;;;;;;0.80;0.50;;;18.90;96.30;;;;;;4979098;28;20429;-76
2021/07/07 10:40:28;;;;;;;0.90;0.60;;;18.70;96.30;;;;;;4974426;28;20175;-76
2021/07/07 10:42:54;;;;;;;2.70;0.60;;;18.50;96.30;;;;;;4981785;28;20180;-78
2021/07/07 10:45:39;;;;;;;0.90;0.60;;;18.70;96.30;;;;;;4993506;28;20464;-78
2021/07/07 10:48:25;;;;;;;0.90;0.60;;;18.50;96.30;;;;;;4975324;28;20430;-78
2021/07/07 13:02:07;;;;;;;;;;;;;;;;;;;;;
2021/07/07 14:01:38;;;;;;;;;;;;;;;;;;;;;
2021/07/07 16:18:35;;;;;;;0.90;0.80;;;19.90;96.30;;;;;;4946704;28;20510;-79
2021/07/07 16:21:00;;;;;;;1.20;0.90;;;19.60;96.30;;;;;;4955975;29;20458;-78
2021/07/07 16:23:26;;;;;;;1.30;0.90;;;19.60;96.30;;;;;;4956079;28;20175;-78
2021/07/07 16:25:51;;;;;;;1.40;1.00;;;19.50;96.30;;;;;;4956001;28;20258;-77
2021/07/07 16:28:17;;;;;;;2.17;0.80;;;19.70;96.30;;;;;;4953021;28;20701;-78
2021/07/07 16:30:42;;;;;;;3.27;0.70;;;19.80;96.30;;;;;;4936356;29;20211;-78
2021/07/07 16:33:09;;;;;;;2.50;0.90;;;19.80;96.30;;;;;;4936878;29;20211;-78
2021/07/07 16:35:34;;;;;;;0.90;0.80;;;19.80;96.30;;;;;;4936947;29;20414;-78
2021/07/07 16:38:00;;;;;;;1.47;0.93;;;19.80;96.30;;;;;;4936021;29;20199;-77
2021/07/07 16:40:25;;;;;;;1.53;1.00;;;19.60;96.30;;;;;;4936162;29;20187;-77
2021/07/07 16:42:51;;;;;;;1.40;0.83;;;19.30;96.30;;;;;;4934008;29;20680;-78
2021/07/07 16:45:18;;;;;;;2.50;2.30;;;19.20;96.30;;;;;;4923797;29;20619;-79
2021/07/07 16:47:44;;;;;;;1.30;1.10;;;18.90;96.30;;;;;;4955055;28;20221;-78
2021/07/07 16:50:11;;;;;;;1.00;0.77;;;18.90;96.30;;;;;;4955846;28;20422;-77
2021/07/07 16:52:36;;;;;;;2.57;0.93;;;18.90;96.30;;;;;;4955638;28;20422;-78
2021/07/07 16:55:03;;;;;;;1.60;0.90;;;19.00;96.30;;;;;;4955796;29;20774;-77
2021/07/07 16:57:29;;;;;;;1.00;0.80;;;18.90;96.30;;;;;;4954937;28;20689;-77
2021/07/07 16:59:55;;;;;;;1.33;0.70;;;18.80;96.30;;;;;;4940052;28;20428;-77
2021/07/07 17:02:20;;;;;;;3.00;0.83;;;18.90;96.30;;;;;;4936508;29;20426;-77
2021/07/07 17:04:46;;;;;;;1.40;0.70;;;18.90;96.30;;;;;;4936351;29;20258;-78
2021/07/07 17:07:11;;;;;;;0.90;0.70;;;18.90;96.30;;;;;;4935871;29;20247;-78
2021/07/07 17:09:37;;;;;;;1.20;0.70;;;18.90;96.30;;;;;;4936806;29;20640;-79
2021/07/07 17:12:03;;;;;;;3.00;0.70;;;18.90;96.30;;;;;;4936670;29;20174;-79
2021/07/07 17:14:28;;;;;;;0.90;0.73;;;18.90;96.30;;;;;;4936671;29;20175;-80
2021/07/07 17:16:54;;;;;;;1.23;0.73;;;18.90;96.30;;;;;;4944316;29;20293;-82
2021/07/07 17:19:19;;;;;;;3.00;0.90;;;19.20;96.30;;;;;;4957934;29;20246;-80
2021/07/07 17:21:45;;;;;;;3.73;0.70;;;19.40;96.30;;;;;;4958574;29;20190;-80
2021/07/07 17:24:10;;;;;;;3.10;0.90;;;19.60;96.30;;;;;;4959070;29;20708;-80
2021/07/07 17:26:38;;;;;;;1.87;0.73;;;19.90;96.30;;;;;;4947027;28;20265;-81
2021/07/07 17:29:06;;;;;;;1.17;1.00;;;20.20;96.30;;;;;;4978021;28;20169;-81
2021/07/07 17:31:31;;;;;;;5.97;0.97;;;20.50;96.30;;;;;;4977966;28;20413;-80
2021/07/07 17:33:57;;;;;;;2.13;1.00;;;20.40;96.30;;;;;;4974524;28;20413;-79
2021/07/07 17:36:22;;;;;;;6.13;1.00;;;20.30;96.30;;;;;;4974242;28;20205;-81
2021/07/07 17:38:48;;;;;;;3.80;1.20;;;20.30;96.30;;;;;;4973786;28;20232;-80
2021/07/07 17:41:15;;;;;;;1.73;1.00;;;20.30;96.30;;;;;;4974576;28;20260;-80
2021/07/07 17:43:41;;;;;;;2.60;0.97;;;20.20;96.30;;;;;;4975257;28;20167;-81
2021/07/07 17:46:08;;;;;;;2.50;1.63;;;20.10;96.30;;;;;;4962660;28;20472;-81
2021/07/07 17:48:33;;;;;;;1.10;1.00;;;19.90;96.30;;;;;;4978798;28;20635;-81
2021/07/07 17:50:59;;;;;;;1.57;1.03;;;19.70;96.30;;;;;;4975010;28;20494;-79
2021/07/07 17:53:25;;;;;;;2.30;1.17;;;19.50;96.30;;;;;;4974509;28;20188;-81
2021/07/07 17:55:50;;;;;;;1.67;1.50;;;19.50;96.30;;;;;;4973632;28;20525;-80
2021/07/07 17:58:16;;;;;;;4.17;1.80;;;19.20;96.30;;;;;;4955531;28;20694;-80
2021/07/07 18:00:42;;;;;;;1.73;1.63;;;19.20;96.30;;;;;;4954503;29;20615;-81
2021/07/07 18:03:07;;;;;;;1.83;1.73;;;19.00;96.30;;;;;;4954421;29;20532;-81
2021/07/07 18:05:33;;;;;;;2.83;1.90;;;18.90;96.30;;;;;;4954213;29;20646;-79
2021/07/07 18:07:59;;;;;;;2.40;2.20;;;19.00;96.30;;;;;;4953702;29;20579;-79
2021/07/07 18:10:24;;;;;;;2.13;1.93;;;18.90;96.30;;;;;;4937167;29;20177;-79
2021/07/07 18:12:50;;;;;;;1.90;1.60;;;19.00;96.30;;;;;;4954331;29;20182;-82
2021/07/07 18:15:16;;;;;;;3.00;1.73;;;18.90;96.30;;;;;;4937632;29;20182;-79
2021/07/07 18:17:42;;;;;;;2.50;2.30;;;18.80;96.30;;;;;;4934089;29;20207;-79
2021/07/07 18:20:10;;;;;;;1.70;1.60;;;18.70;96.30;;;;;;4935485;29;20434;-79
2021/07/07 18:22:36;;;;;;;1.67;1.57;;;18.60;96.30;;;;;;4934913;29;20592;-79
2021/07/07 18:25:04;;;;;;;1.80;1.47;;;18.50;96.30;;;;;;4945936;29;20454;-81
2021/07/07 18:27:30;;;;;;;1.77;1.60;;;18.40;96.30;;;;;;4955227;29;20687;-80
2021/07/07 18:29:55;;;;;;;1.97;1.77;;;18.50;96.30;;;;;;4956080;29;20464;-81
2021/07/07 18:32:21;;;;;;;3.50;1.70;;;18.50;96.30;;;;;;4956288;29;20195;-81
2021/07/07 18:34:46;;;;;;;2.70;1.90;;;18.50;96.30;;;;;;4956776;29;20640;-83
2021/07/07 18:37:12;;;;;;;2.40;1.83;;;18.30;96.30;;;;;;4955995;29;20210;-82
2021/07/07 18:39:37;;;;;;;6.50;1.90;;;18.20;96.30;;;;;;4956029;29;20589;-80
2021/07/07 18:42:03;;;;;;;6.57;1.70;;;18.10;96.30;;;;;;4956540;29;20289;-81
2021/07/07 18:44:29;;;;;;;3.73;1.50;;;17.90;96.30;;;;;;4956093;29;20257;-80
2021/07/07 18:46:54;;;;;;;2.20;1.30;;;17.70;96.30;;;;;;4955286;29;20210;-86
2021/07/07 18:49:20;;;;;;;1.50;1.40;;;17.60;96.30;;;;;;4955957;29;20569;-81
2021/07/07 18:51:45;;;;;;;2.50;1.67;;;17.40;96.30;;;;;;4954783;29;20174;-83
2021/07/07 18:54:11;;;;;;;3.10;1.50;;;17.30;96.30;;;;;;4919513;29;20175;-81
2021/07/07 18:56:36;;;;;;;8.27;1.50;;;17.20;96.30;;;;;;4936011;29;20222;-80
2021/07/07 18:59:04;;;;;;;2.23;1.50;;;17.10;96.30;;;;;;4950918;29;20658;-79
2021/07/07 19:01:30;;;;;;;2.57;1.10;;;17.00;96.30;;;;;;4954561;29;20175;-81
2021/07/07 19:03:55;;;;;;;3.83;1.43;;;17.00;96.30;;;;;;4937614;29;20570;-82
2021/07/07 19:06:21;;;;;;;1.57;1.30;;;16.90;96.30;;;;;;4935635;29;20738;-82
2021/07/07 19:08:47;;;;;;;4.27;1.20;;;16.80;96.30;;;;;;4935895;29;20200;-83
2021/07/07 19:11:12;;;;;;;1.63;1.30;;;16.70;96.30;;;;;;4936231;29;20521;-82
2021/07/07 19:13:38;;;;;;;7.10;1.93;;;16.60;96.30;;;;;;4936476;29;20178;-83
2021/07/07 19:16:04;;;;;;;7.13;1.93;;;16.40;96.30;;;;;;4936190;29;20176;-82
2021/07/07 19:18:29;;;;;;;11.03;5.97;;;16.40;96.30;;;;;;4936025;29;20789;-82
2021/07/07 19:20:56;;;;;;;20.30;8.57;;;16.20;96.30;;;;;;4936245;29;20432;-81
2021/07/07 19:23:22;;;;;;;10.63;5.00;;;16.10;96.30;;;;;;4936556;29;20211;-82
2021/07/07 19:25:48;;;;;;;9.30;2.10;;;16.00;96.30;;;;;;4936006;29;20768;-81
2021/07/07 19:28:17;;;;;;;12.70;5.30;;;15.90;96.30;;;;;;4934955;29;20196;-82
2021/07/07 19:30:44;;;;;;;33.70;20.13;;;15.80;96.30;;;;;;4936019;29;21064;-81
2021/07/07 19:33:14;;;;;;;66.27;43.00;;;15.80;96.30;;;;;;4917505;29;20423;-83
2021/07/07 19:35:40;;;;;;;34.80;24.30;;;15.70;96.30;;;;;;4937879;29;20416;-82
2021/07/07 19:38:06;;;;;;;18.13;13.37;;;15.70;96.30;;;;;;4938933;29;20443;-81
2021/07/07 19:40:33;;;;;;;7.33;6.20;;;15.70;96.30;;;;;;4938846;29;20426;-82
2021/07/07 19:42:59;;;;;;;2.93;2.43;;;15.60;96.30;;;;;;4939389;29;20423;-82
2021/07/07 19:45:25;;;;;;;3.40;1.77;;;15.60;96.30;;;;;;4939232;29;20515;-81
2021/07/07 19:47:51;;;;;;;5.90;3.47;;;15.60;96.30;;;;;;4921525;29;20282;-83
2021/07/07 19:50:19;;;;;;;13.60;4.00;;;15.50;96.30;;;;;;4921897;29;20647;-81
2021/07/07 19:52:44;;;;;;;5.03;2.60;;;15.50;96.30;;;;;;4922066;29;20463;-82
2021/07/07 19:55:11;;;;;;;6.93;4.40;;;15.40;96.30;;;;;;4939032;29;20415;-82
2021/07/07 19:57:41;;;;;;;5.17;2.20;;;15.40;96.30;;;;;;4921739;29;20578;-81
2021/07/07 20:00:21;;;;;;;10.10;6.57;;;15.50;96.30;;;;;;4938971;29;20447;-85
2021/07/07 20:02:48;;;;;;;5.77;5.20;;;15.60;96.30;;;;;;4938671;29;20414;-82
2021/07/07 20:05:15;;;;;;;4.60;3.93;;;15.60;96.30;;;;;;4921116;29;20494;-85
2021/07/07 20:07:40;;;;;;;9.10;4.23;;;15.70;96.30;;;;;;4944541;29;20506;-82
2021/07/07 20:10:09;;;;;;;9.97;4.23;;;15.70;96.30;;;;;;4930596;29;20435;-82
2021/07/07 20:12:35;;;;;;;5.50;2.00;;;15.70;96.30;;;;;;4921878;29;20656;-83
2021/07/07 20:15:02;;;;;;;4.27;2.90;;;15.70;96.30;;;;;;4938880;29;20931;-83
2021/07/07 20:17:28;;;;;;;4.37;2.30;;;15.70;96.30;;;;;;4921279;29;20869;-83
2021/07/07 20:19:54;;;;;;;2.80;2.07;;;15.70;96.30;;;;;;4921405;29;20434;-83
2021/07/07 20:22:19;;;;;;;2.47;2.00;;;15.80;96.30;;;;;;4938962;29;20419;-81
2021/07/07 20:24:47;;;;;;;3.87;2.23;;;15.80;96.30;;;;;;4938874;29;20266;-81
2021/07/07 20:27:13;;;;;;;1.73;1.63;;;15.80;96.30;;;;;;4957351;29;20213;-84
2021/07/07 20:29:38;;;;;;;2.93;2.63;;;15.90;96.30;;;;;;4957732;29;20411;-85
2021/07/07 20:32:04;;;;;;;4.20;3.00;;;16.00;96.30;;;;;;4957715;29;20215;-81
2021/07/07 20:34:30;;;;;;;13.60;3.07;;;16.00;96.30;;;;;;4957352;29;20643;-81
2021/07/07 20:36:55;;;;;;;4.70;3.13;;;16.00;96.30;;;;;;4957040;29;20258;-82
2021/07/07 20:39:21;;;;;;;3.10;2.80;;;16.00;96.30;;;;;;4957132;29;20178;-85
2021/07/07 20:41:46;;;;;;;3.40;2.83;;;16.00;96.30;;;;;;4957146;29;20750;-81
2021/07/07 20:44:12;;;;;;;4.10;3.67;;;16.00;96.30;;;;;;4939638;29;20189;-81
2021/07/07 20:46:37;;;;;;;3.90;2.90;;;15.90;96.30;;;;;;4956658;28;20683;-82
2021/07/07 20:49:03;;;;;;;4.40;2.80;;;15.90;96.30;;;;;;4939983;29;20178;-81
2021/07/07 20:51:29;;;;;;;3.17;2.80;;;15.90;96.30;;;;;;4957263;29;20222;-81
2021/07/07 20:53:54;;;;;;;7.10;2.83;;;15.90;96.30;;;;;;4957301;29;20179;-81
2021/07/07 20:56:20;;;;;;;6.23;2.60;;;15.90;96.30;;;;;;4939869;29;20178;-83
2021/07/07 20:58:45;;;;;;;2.63;2.43;;;15.90;96.30;;;;;;4956870;29;20539;-82
2021/07/07 21:01:11;;;;;;;8.37;2.50;;;15.90;96.30;;;;;;4957423;29;20171;-82
2021/07/07 21:03:36;;;;;;;2.50;1.90;;;15.90;96.30;;;;;;4957079;29;20187;-82
2021/07/07 21:06:02;;;;;;;9.00;3.43;;;15.90;96.30;;;;;;4939756;29;20277;-83
2021/07/07 21:08:28;;;;;;;4.83;2.07;;;15.80;96.30;;;;;;4939270;29;20198;-84
2021/07/07 21:10:53;;;;;;;3.73;1.80;;;15.80;96.30;;;;;;4938853;29;20182;-81
2021/07/07 21:13:19;;;;;;;6.43;2.63;;;15.90;96.30;;;;;;4939585;29;20563;-81
2021/07/07 21:15:44;;;;;;;4.10;2.17;;;16.00;96.30;;;;;;4956726;29;20226;-83
2021/07/07 21:18:10;;;;;;;4.13;2.30;;;15.90;96.30;;;;;;4938420;29;20222;-82
2021/07/07 21:20:35;;;;;;;3.90;2.17;;;15.90;96.30;;;;;;4956740;29;20190;-82
2021/07/07 21:23:01;;;;;;;2.23;2.03;;;15.80;96.30;;;;;;4956592;29;20186;-82
2021/07/07 21:25:27;;;;;;;7.43;2.60;;;15.80;96.30;;;;;;4956882;29;20190;-83
2021/07/07 21:27:53;;;;;;;4.03;2.17;;;15.80;96.30;;;;;;4955646;29;20253;-82
2021/07/07 21:30:20;;;;;;;2.43;2.10;;;15.80;96.30;;;;;;4956559;29;20179;-81
2021/07/07 21:32:46;;;;;;;8.10;2.40;;;15.70;96.30;;;;;;4956394;29;20423;-82
2021/07/07 21:35:16;;;;;;;3.80;2.17;;;15.70;96.30;;;;;;4956563;29;20461;-81
2021/07/07 21:37:43;;;;;;;2.60;1.90;;;15.70;96.30;;;;;;4955919;29;20922;-81
2021/07/07 21:40:10;;;;;;;5.53;2.20;;;15.60;96.30;;;;;;4956572;29;20782;-81
2021/07/07 21:42:35;;;;;;;3.60;2.20;;;15.60;96.30;;;;;;4938843;29;20426;-83
2021/07/07 21:45:01;;;;;;;2.93;2.20;;;15.50;96.30;;;;;;4939156;29;20854;-82
2021/07/07 21:47:26;;;;;;;3.60;2.43;;;15.50;96.30;;;;;;4955575;29;20603;-81
2021/07/07 21:49:52;;;;;;;7.70;2.23;;;15.40;96.30;;;;;;4955418;29;20523;-82
2021/07/07 21:52:18;;;;;;;6.70;2.10;;;15.30;96.30;;;;;;4939085;29;20185;-83
2021/07/07 21:54:44;;;;;;;11.20;2.43;;;15.20;96.30;;;;;;4956247;29;20179;-84
2021/07/07 21:57:12;;;;;;;9.50;1.77;;;15.30;96.30;;;;;;4937784;29;20446;-81
2021/07/07 21:59:37;;;;;;;3.00;2.33;;;15.30;96.30;;;;;;4938415;29;20183;-81
2021/07/07 22:02:03;;;;;;;6.33;2.20;;;15.20;96.30;;;;;;4955771;29;20426;-82
2021/07/07 22:04:28;;;;;;;3.10;2.20;;;15.10;96.30;;;;;;4938595;29;20611;-82
2021/07/07 22:06:54;;;;;;;3.90;2.70;;;15.10;96.30;;;;;;4955400;29;20597;-84
2021/07/07 22:09:19;;;;;;;5.50;2.40;;;15.00;96.30;;;;;;4938342;29;20239;-81